Time;durP1;ratioP1;P1;durP2;ratioP2;P2;SDS_P1;SDS_P2;PMS_P1;PMS_P2;Temp;Humidity;BMP_temperature;BMP_pressure;BME280_temperature;BME280_humidity;BME280_pressure;Samples;Min_cycle;Max_cycle;Signal;HPM_P1;HPM_P2
2022/02/16 00:01:04;;;;;;;9.35;6.37;;;;;;;3.07;78.92;98708.01;1743149;81;20908;-61
2022/02/16 00:03:31;;;;;;;7.53;5.40;;;;;;;2.97;79.01;98702.74;1730897;81;21141;-61
2022/02/16 00:05:58;;;;;;;8.93;6.03;;;;;;;2.91;79.13;98705.95;1745892;80;21095;-61
2022/02/16 00:08:24;;;;;;;7.87;6.40;;;;;;;2.84;79.13;98699.29;1744392;81;21015;-61
2022/02/16 00:10:51;;;;;;;10.47;7.03;;;;;;;2.72;79.05;98694.53;1740055;81;21073;-61
2022/02/16 00:13:18;;;;;;;10.23;6.75;;;;;;;2.72;79.05;98694.53;1718787;82;21600;-61
2022/02/16 00:15:44;;;;;;;10.63;6.28;;;;;;;2.67;79.37;98692.55;1710390;82;22364;-62
2022/02/16 00:18:11;;;;;;;9.38;6.28;;;;;;;2.65;79.48;98693.03;1742407;81;20998;-61
2022/02/16 00:20:37;;;;;;;11.65;6.17;;;;;;;2.62;79.50;98695.70;1735146;81;21690;-61
2022/02/16 00:23:04;;;;;;;8.98;6.60;;;;;;;2.59;79.62;98681.18;1728808;81;21049;-61
2022/02/16 00:25:31;;;;;;;10.63;6.00;;;;;;;2.58;79.68;98674.35;1733422;81;20932;-61
2022/02/16 00:27:58;;;;;;;12.35;6.20;;;;;;;2.57;79.72;98674.39;1721113;81;21989;-61
2022/02/16 00:30:24;;;;;;;10.68;6.83;;;;;;;2.56;79.85;98671.42;1709205;81;20998;-61
2022/02/16 00:32:51;;;;;;;11.93;6.75;;;;;;;2.58;79.94;98669.20;1707965;82;21047;-61
2022/02/16 00:35:18;;;;;;;9.37;6.33;;;;;;;2.59;80.01;98657.15;1714240;83;21579;-61
2022/02/16 00:37:45;;;;;;;10.28;7.40;;;;;;;2.58;79.94;98658.05;1677865;84;21622;-61
2022/02/16 00:40:16;;;;;;;12.68;7.17;;;;;;;2.57;79.97;98660.22;1700574;82;21542;-61
2022/02/16 00:42:43;;;;;;;14.73;7.28;;;;;;;2.53;80.02;98659.93;1713020;83;20988;-61
2022/02/16 00:45:10;;;;;;;17.15;7.58;;;;;;;2.52;79.97;98653.07;1709258;82;21188;-61
2022/02/16 00:47:36;;;;;;;13.78;7.72;;;;;;;2.51;80.12;98646.24;1710888;82;20962;-61
2022/02/16 00:50:07;;;;;;;11.77;7.20;;;;;;;2.48;80.14;98639.90;1692056;81;21011;-61
2022/02/16 00:52:36;;;;;;;15.70;7.92;;;;;;;2.50;80.27;98636.84;1697770;83;21008;-61
2022/02/16 00:55:03;;;;;;;13.98;8.30;;;;;;;2.49;80.36;98629.98;1703550;82;20993;-61
2022/02/16 00:57:29;;;;;;;12.53;8.58;;;;;;;2.49;80.20;98624.83;1717577;82;20908;-61
2022/02/16 00:59:56;;;;;;;13.80;8.98;;;;;;;2.45;80.35;98617.20;1718496;82;20971;-61
2022/02/16 01:02:23;;;;;;;16.30;9.10;;;;;;;2.45;80.45;98615.91;1721254;82;21536;-61
2022/02/16 01:04:49;;;;;;;13.58;9.33;;;;;;;2.45;80.51;98627.50;1714879;82;21658;-61
2022/02/16 01:07:16;;;;;;;13.10;8.48;;;;;;;2.44;80.57;98611.66;1670306;84;21608;-61
2022/02/16 01:09:43;;;;;;;14.10;9.03;;;;;;;2.44;80.63;98602.64;1711190;82;21513;-61
2022/02/16 01:12:11;;;;;;;16.70;8.60;;;;;;;2.41;80.46;98600.17;1694938;83;21105;-61
2022/02/16 01:14:39;;;;;;;13.13;9.98;;;;;;;2.37;80.59;98601.14;1679711;84;21548;-61
2022/02/16 01:17:06;;;;;;;14.63;8.90;;;;;;;2.34;80.61;98592.23;1697083;82;21656;-61
2022/02/16 01:19:33;;;;;;;15.50;9.50;;;;;;;2.31;80.73;98585.88;1695196;82;21006;-61
2022/02/16 01:22:00;;;;;;;13.72;8.63;;;;;;;2.27;80.74;98579.16;1699333;82;21654;-61
2022/02/16 01:24:26;;;;;;;14.87;9.13;;;;;;;2.24;80.83;98581.80;1703086;82;21079;-61
2022/02/16 01:26:53;;;;;;;13.30;8.88;;;;;;;2.22;80.92;98573.31;1724234;82;20943;-61
2022/02/16 01:29:20;;;;;;;17.50;9.60;;;;;;;2.20;80.88;98573.34;1704863;82;21967;-61
2022/02/16 02:03:53;;;;;;;;;;;;;;;2.17;82.08;98506.94;1344294;105;21720;-62
2022/02/16 02:06:20;;;;;;;14.68;10.93;;;;;;;2.18;82.08;98497.02;1356261;101;20880;-62
2022/02/16 02:08:47;;;;;;;18.25;10.55;;;;;;;2.13;82.00;98486.89;1400235;100;21178;-62
2022/02/16 02:11:13;;;;;;;13.22;9.28;;;;;;;2.13;82.05;98483.45;1395593;101;21204;-62
2022/02/16 02:13:59;;;;;;;20.17;12.23;;;;;;;2.12;82.11;98474.05;1391241;100;21714;-62
2022/02/16 02:16:26;;;;;;;17.70;11.12;;;;;;;2.11;82.20;98474.95;1415978;99;21153;-61
2022/02/16 02:18:54;;;;;;;21.17;11.57;;;;;;;2.13;82.46;98473.15;1416021;100;21989;-61
2022/02/16 02:21:21;;;;;;;;;;;;;;;2.14;82.44;98463.27;1437562;97;21258;-61
2022/02/16 02:23:49;;;;;;;17.48;10.15;;;;;;;2.14;82.35;98468.41;1499445;91;20249;-60
2022/02/16 02:26:18;;;;;;;14.38;10.03;;;;;;;2.11;82.45;98460.34;1541211;91;21236;-61
2022/02/16 02:28:46;;;;;;;16.12;9.60;;;;;;;2.12;82.52;98458.60;1559629;89;21097;-61
2022/02/16 02:31:14;;;;;;;15.32;10.50;;;;;;;2.13;82.56;98460.27;1580876;88;21482;-61
2022/02/16 02:33:41;;;;;;;15.80;10.63;;;;;;;2.14;82.49;98461.98;1604389;86;21048;-60
2022/02/16 02:36:09;;;;;;;17.73;9.73;;;;;;;2.16;82.73;98452.48;1623610;85;21166;-61
2022/02/16 02:38:38;;;;;;;14.23;10.13;;;;;;;2.18;82.67;98450.67;1635076;86;21184;-61
2022/02/16 02:41:06;;;;;;;16.52;9.65;;;;;;;2.18;82.65;98445.52;1665948;81;21516;-61
2022/02/16 02:43:36;;;;;;;14.80;10.68;;;;;;;2.18;82.83;98432.64;1717495;81;21310;-61
2022/02/16 02:46:03;;;;;;;14.03;10.35;;;;;;;2.20;82.85;98430.86;1714529;81;21016;-62
2022/02/16 02:48:29;;;;;;;14.68;9.93;;;;;;;2.22;82.96;98423.94;1713910;81;21029;-62
2022/02/16 02:50:56;;;;;;;11.83;9.50;;;;;;;2.22;82.85;98413.19;1720163;81;21492;-62
2022/02/16 02:53:23;;;;;;;13.85;10.25;;;;;;;2.23;82.90;98407.58;1711867;81;21072;-63
2022/02/16 02:55:50;;;;;;;13.90;9.65;;;;;;;2.25;83.02;98403.22;1714968;81;21440;-61
2022/02/16 02:58:16;;;;;;;16.15;10.68;;;;;;;2.26;82.96;98402.31;1716805;81;21120;-62
2022/02/16 03:00:43;;;;;;;14.53;10.17;;;;;;;2.23;82.89;98388.27;1715920;81;20991;-62
2022/02/16 03:03:18;;;;;;;13.00;9.23;;;;;;;2.22;83.03;98380.98;1715899;81;20972;-61
2022/02/16 03:05:45;;;;;;;13.65;9.83;;;;;;;2.23;83.06;98372.81;1713140;81;20999;-61
2022/02/16 03:08:11;;;;;;;15.93;10.75;;;;;;;2.26;83.35;98365.42;1715539;81;22426;-62
2022/02/16 03:10:38;;;;;;;15.55;10.78;;;;;;;2.28;83.29;98358.05;1718855;81;20936;-62
2022/02/16 03:13:18;;;;;;;13.73;10.50;;;;;;;2.29;83.29;98370.02;1718134;81;21011;-63
2022/02/16 03:15:33;;;;;;;14.73;10.72;;;;;;;2.31;83.29;98364.37;1713496;82;21039;-62
2022/02/16 03:18:00;;;;;;;19.27;10.50;;;;;;;2.32;83.37;98355.73;1722122;82;21007;-62
2022/02/16 03:20:27;;;;;;;17.62;10.85;;;;;;;2.34;83.36;98354.41;1717358;81;22536;-62
2022/02/16 03:22:54;;;;;;;16.60;11.68;;;;;;;2.35;83.54;98345.35;1715775;81;22259;-62
2022/02/16 03:25:20;;;;;;;15.55;10.82;;;;;;;2.38;83.60;98345.23;1674976;84;20973;-62
2022/02/16 03:27:48;;;;;;;15.25;11.20;;;;;;;2.40;83.45;98338.27;1674161;84;21122;-62
2022/02/16 03:30:14;;;;;;;17.00;11.97;;;;;;;2.41;83.43;98337.39;1715023;81;20956;-62
2022/02/16 03:32:41;;;;;;;17.35;10.75;;;;;;;2.40;83.43;98327.97;1677474;83;21565;-62
2022/02/16 03:35:08;;;;;;;16.30;10.10;;;;;;;2.40;83.48;98327.97;1713517;81;20952;-62
2022/02/16 03:37:35;;;;;;;17.62;11.80;;;;;;;2.42;83.52;98326.19;1714154;81;20935;-62
2022/02/16 03:40:04;;;;;;;16.30;11.95;;;;;;;2.42;83.56;98305.58;1687330;83;21113;-62
2022/02/16 03:42:31;;;;;;;16.60;10.58;;;;;;;2.44;83.49;98310.69;1713033;81;21538;-62
2022/02/16 03:44:58;;;;;;;14.20;10.15;;;;;;;2.45;83.52;98306.75;1715685;81;22015;-62
2022/02/16 03:47:24;;;;;;;17.45;10.70;;;;;;;2.48;83.62;98306.25;1719138;82;21053;-62
2022/02/16 03:49:51;;;;;;;13.93;9.98;;;;;;;2.52;83.57;98294.92;1715996;81;21625;-63
2022/02/16 03:52:18;;;;;;;13.22;10.70;;;;;;;2.55;83.59;98293.09;1719010;81;20979;-62
2022/02/16 03:54:44;;;;;;;13.73;10.10;;;;;;;2.59;83.55;98292.52;1714654;81;21672;-63
2022/02/16 03:57:11;;;;;;;13.40;9.68;;;;;;;2.60;83.51;98277.44;1712273;81;21418;-62
2022/02/16 03:59:38;;;;;;;15.80;10.35;;;;;;;2.63;83.52;98279.89;1716546;81;21033;-62
2022/02/16 04:02:05;;;;;;;17.25;9.78;;;;;;;2.67;83.47;98281.47;1715941;81;21070;-62
2022/02/16 04:04:32;;;;;;;12.88;9.65;;;;;;;2.71;83.54;98279.61;1717664;81;21558;-62
2022/02/16 04:06:58;;;;;;;13.15;9.75;;;;;;;2.74;83.55;98271.30;1724831;81;21041;-61
2022/02/16 04:09:25;;;;;;;15.50;9.53;;;;;;;2.78;83.48;98263.86;1724229;81;22416;-62
2022/02/16 04:11:52;;;;;;;12.07;9.18;;;;;;;2.81;83.42;98268.89;1725753;81;21021;-62
2022/02/16 04:14:18;;;;;;;12.23;9.83;;;;;;;2.84;83.35;98271.34;1721029;81;21038;-63
2022/02/16 04:16:46;;;;;;;16.93;9.30;;;;;;;2.87;83.34;98260.91;1729332;81;20946;-62
2022/02/16 04:19:13;;;;;;;14.90;9.50;;;;;;;2.89;83.27;98259.12;1721152;81;21678;-62
2022/02/16 04:21:39;;;;;;;13.75;10.08;;;;;;;2.93;83.28;98266.73;1701566;82;22423;-62
2022/02/16 04:24:06;;;;;;;14.87;10.27;;;;;;;2.96;83.29;98258.87;1722211;82;21089;-62
2022/02/16 04:26:33;;;;;;;14.63;10.23;;;;;;;2.99;83.27;98258.74;1729166;82;21477;-61
2022/02/16 04:29:00;;;;;;;15.47;10.67;;;;;;;3.00;83.26;98252.70;1725359;82;21751;-62
2022/02/16 04:31:26;;;;;;;17.23;10.55;;;;;;;3.00;83.29;98255.28;1729686;82;20950;-62
2022/02/16 04:33:53;;;;;;;16.23;10.97;;;;;;;3.03;83.32;98246.13;1726434;81;21134;-61
2022/02/16 04:36:25;;;;;;;16.50;11.80;;;;;;;3.03;83.34;98246.13;1724685;81;21081;-63
2022/02/16 04:38:58;;;;;;;16.90;11.20;;;;;;;3.03;83.32;98229.38;1726154;81;21089;-61
2022/02/16 04:41:25;;;;;;;13.78;10.80;;;;;;;3.05;83.35;98223.68;1721991;82;20968;-62
2022/02/16 04:43:52;;;;;;;13.53;10.25;;;;;;;3.05;83.37;98223.68;1721167;81;20998;-61
2022/02/16 04:46:19;;;;;;;15.85;11.00;;;;;;;2.94;83.31;98209.09;1726388;81;21080;-63
2022/02/16 04:48:47;;;;;;;15.25;11.88;;;;;;;3.04;83.45;98231.04;1727377;81;28187;-61
2022/02/16 04:51:14;;;;;;;18.25;11.43;;;;;;;3.06;83.46;98224.09;1724477;81;21020;-63
2022/02/16 04:53:41;;;;;;;18.12;12.35;;;;;;;3.06;83.47;98229.24;1707980;82;20966;-62
2022/02/16 04:56:08;;;;;;;15.60;10.43;;;;;;;3.07;83.48;98220.59;1727842;82;20966;-61
2022/02/16 04:58:35;;;;;;;17.30;12.50;;;;;;;3.06;83.51;98218.93;1723550;81;22413;-62
2022/02/16 05:01:02;;;;;;;17.75;12.03;;;;;;;3.07;83.53;98219.30;1722512;81;21060;-62
2022/02/16 05:03:29;;;;;;;19.77;12.95;;;;;;;3.06;83.54;98215.06;1722221;81;21094;-62
2022/02/16 05:05:56;;;;;;;17.12;12.65;;;;;;;3.05;83.57;98219.81;1721336;81;21065;-62
2022/02/16 05:08:23;;;;;;;16.85;12.40;;;;;;;3.05;83.61;98223.68;1727116;82;21664;-62
2022/02/16 05:10:49;;;;;;;16.33;12.03;;;;;;;3.02;83.64;98214.78;1725718;81;21551;-63
2022/02/16 05:13:16;;;;;;;20.33;13.67;;;;;;;3.00;83.67;98216.61;1722884;81;21006;-62
2022/02/16 05:15:43;;;;;;;18.00;12.25;;;;;;;2.99;83.71;98218.78;1726020;81;21006;-62
2022/02/16 05:18:09;;;;;;;18.02;11.70;;;;;;;3.00;83.76;98197.27;1726962;81;21017;-62
2022/02/16 05:20:57;;;;;;;16.10;12.07;;;;;;;3.01;83.75;98182.17;1720658;81;21147;-62
2022/02/16 05:23:24;;;;;;;16.60;11.93;;;;;;;3.01;83.81;98195.06;1653950;85;21623;-62
2022/02/16 05:25:53;;;;;;;16.27;11.55;;;;;;;3.00;83.81;98188.24;1647234;85;21558;-62
2022/02/16 05:28:20;;;;;;;15.23;11.50;;;;;;;2.97;83.83;98189.20;1652262;85;21097;-61
2022/02/16 05:30:47;;;;;;;16.25;12.45;;;;;;;2.97;83.88;98184.05;1649108;85;21706;-61
2022/02/16 05:33:13;;;;;;;16.03;12.03;;;;;;;2.96;83.93;98186.67;1647150;85;21020;-61
2022/02/16 05:35:40;;;;;;;16.30;11.63;;;;;;;2.97;84.00;98188.34;1650376;85;21454;-61
2022/02/16 05:38:07;;;;;;;15.60;11.95;;;;;;;2.94;83.99;98183.31;1649786;84;21764;-60
2022/02/16 05:40:33;;;;;;;16.20;12.58;;;;;;;2.91;84.00;98182.56;1649514;84;20940;-61
2022/02/16 05:43:00;;;;;;;16.50;12.73;;;;;;;2.91;84.05;98185.14;1651629;85;20964;-61
2022/02/16 05:45:30;;;;;;;17.07;11.80;;;;;;;2.89;84.12;98189.51;1645932;85;21119;-61
2022/02/16 05:47:56;;;;;;;17.92;12.47;;;;;;;2.88;84.12;98187.81;1646353;85;21437;-61
2022/02/16 05:50:23;;;;;;;15.03;11.93;;;;;;;2.86;84.17;98184.48;1608495;86;21053;-61
2022/02/16 05:52:49;;;;;;;14.77;11.43;;;;;;;2.85;84.21;98190.52;1609216;88;21043;-61
2022/02/16 05:55:16;;;;;;;14.87;11.20;;;;;;;2.83;84.25;98181.17;1608342;87;20987;-60
2022/02/16 05:57:43;;;;;;;17.92;12.37;;;;;;;2.81;84.32;98179.95;1605204;88;21632;-61
2022/02/16 06:00:11;;;;;;;14.40;11.57;;;;;;;2.82;84.41;98175.17;1607875;87;21533;-61
2022/02/16 06:02:38;;;;;;;16.60;11.97;;;;;;;2.81;84.39;98181.25;1613320;87;21013;-61
2022/02/16 06:05:06;;;;;;;14.58;11.22;;;;;;;2.82;84.45;98171.77;1612357;87;21071;-61
2022/02/16 06:07:33;;;;;;;16.57;12.28;;;;;;;2.80;84.49;98174.42;1614240;87;21028;-61
2022/02/16 06:10:00;;;;;;;14.68;10.93;;;;;;;2.80;84.49;98177.42;1645622;85;21680;-62
2022/02/16 06:12:27;;;;;;;14.07;11.20;;;;;;;2.79;84.54;98179.17;1643941;85;21166;-61
2022/02/16 06:14:54;;;;;;;14.07;9.78;;;;;;;2.78;84.61;98181.38;1647407;85;21829;-61
2022/02/16 06:17:23;;;;;;;15.18;10.82;;;;;;;2.80;84.62;98181.30;1604579;87;21029;-61
2022/02/16 06:19:50;;;;;;;16.57;10.15;;;;;;;2.77;84.67;98178.39;1647451;85;21240;-61
2022/02/16 06:22:17;;;;;;;13.50;10.73;;;;;;;2.78;84.72;98177.96;1651081;85;21059;-62
2022/02/16 06:24:43;;;;;;;14.83;10.97;;;;;;;2.77;84.75;98177.09;1650808;85;21496;-62
2022/02/16 06:27:10;;;;;;;13.20;10.00;;;;;;;2.75;84.75;98171.19;1653936;84;21659;-62
2022/02/16 06:29:37;;;;;;;13.70;10.50;;;;;;;2.75;84.87;98171.19;1649326;85;21031;-62
2022/02/16 06:32:04;;;;;;;16.17;11.00;;;;;;;2.71;84.92;98159.31;1645907;84;21222;-62
2022/02/16 06:34:31;;;;;;;11.45;9.88;;;;;;;2.68;84.98;98162.02;1653058;85;20979;-62
2022/02/16 06:36:58;;;;;;;13.60;10.17;;;;;;;2.67;85.05;98164.22;1650916;85;21485;-62
2022/02/16 06:39:25;;;;;;;11.50;9.93;;;;;;;2.66;85.08;98158.66;1651408;85;21130;-62
2022/02/16 06:41:52;;;;;;;14.13;10.58;;;;;;;2.65;85.10;98167.30;1650905;84;21557;-61
2022/02/16 06:44:18;;;;;;;15.85;10.00;;;;;;;2.66;85.14;98168.96;1651321;84;21682;-63
2022/02/16 06:46:47;;;;;;;11.80;9.45;;;;;;;2.65;85.17;98162.14;1653469;85;20984;-62
2022/02/16 06:49:15;;;;;;;14.18;10.15;;;;;;;2.64;85.23;98159.19;1655738;84;23256;-62
2022/02/16 06:51:43;;;;;;;12.85;8.95;;;;;;;2.62;85.23;98162.27;1652554;85;21047;-62
2022/02/16 06:54:09;;;;;;;;;;;;;;;2.61;85.22;98160.59;1655989;85;21043;-61
2022/02/16 06:56:36;;;;;;;12.50;9.68;;;;;;;2.60;85.34;98161.48;1616577;87;20549;-62
2022/02/16 06:59:03;;;;;;;12.40;8.37;;;;;;;2.59;85.35;98164.97;1600360;87;21066;-62
2022/02/16 07:01:30;;;;;;;10.80;8.00;;;;;;;2.57;85.42;98159.03;1601823;87;21100;-62
2022/02/16 07:03:56;;;;;;;8.73;7.57;;;;;;;2.57;85.53;98148.72;1601592;87;21009;-62
2022/02/16 07:06:25;;;;;;;10.33;7.90;;;;;;;2.56;85.60;98153.05;1595853;87;21050;-62
2022/02/16 07:08:54;;;;;;;10.23;7.83;;;;;;;2.56;85.60;98153.05;1587221;89;22013;-62
2022/02/16 07:11:20;;;;;;;11.48;8.08;;;;;;;2.57;85.54;98156.45;1612075;86;21109;-62
2022/02/16 07:13:47;;;;;;;9.00;7.05;;;;;;;2.58;85.60;98158.15;1612961;87;21471;-62
2022/02/16 07:16:14;;;;;;;8.58;7.12;;;;;;;2.59;85.64;98158.53;1613320;85;23430;-62
2022/02/16 07:18:43;;;;;;;10.13;6.62;;;;;;;2.60;85.59;98154.58;1618607;85;21066;-61
2022/02/16 07:21:10;;;;;;;9.18;6.67;;;;;;;2.62;85.68;98154.53;1614634;87;21197;-62
2022/02/16 07:23:37;;;;;;;;;;;;;;;2.63;85.66;98153.62;1610128;87;21195;-61
2022/02/16 07:26:09;;;;;;;7.40;6.35;;;;;;;2.65;85.75;98147.52;1610033;87;20888;-61
2022/02/16 07:28:36;;;;;;;8.98;6.22;;;;;;;2.65;85.73;98149.25;1610125;87;21016;-61
2022/02/16 07:31:03;;;;;;;7.55;6.17;;;;;;;2.64;85.73;98148.87;1590030;88;21557;-62
2022/02/16 07:33:30;;;;;;;10.00;6.22;;;;;;;2.65;85.81;98137.20;1596076;88;21054;-62
2022/02/16 07:35:56;;;;;;;9.80;6.90;;;;;;;2.66;85.80;98143.19;1637045;86;21090;-61
2022/02/16 07:38:23;;;;;;;7.87;6.33;;;;;;;2.66;85.88;98147.05;1632157;86;21241;-61
2022/02/16 07:40:51;;;;;;;7.47;5.92;;;;;;;2.70;85.95;98142.18;1627450;85;21049;-62
2022/02/16 07:43:18;;;;;;;11.93;5.87;;;;;;;2.72;85.88;98134.37;1626678;85;21551;-61
2022/02/16 07:45:45;;;;;;;7.05;6.17;;;;;;;2.74;85.87;98146.30;1627338;85;21051;-62
2022/02/16 07:48:12;;;;;;;6.93;5.50;;;;;;;2.77;85.91;98139.72;1591745;87;21042;-61
2022/02/16 07:50:39;;;;;;;6.92;5.15;;;;;;;2.82;85.92;98136.52;1624199;86;21124;-61
2022/02/16 07:53:06;;;;;;;7.42;5.65;;;;;;;2.86;85.95;98130.34;1588414;88;21051;-61
2022/02/16 07:55:33;;;;;;;6.50;4.90;;;;;;;2.90;85.88;98133.17;1585070;89;21693;-62
2022/02/16 07:58:01;;;;;;;5.60;4.35;;;;;;;2.89;85.82;98114.75;1582806;87;21092;-61
2022/02/16 08:00:37;;;;;;;6.97;4.95;;;;;;;2.93;85.93;98124.93;1591076;87;20999;-62
2022/02/16 08:02:59;;;;;;;6.10;4.62;;;;;;;2.93;85.91;98117.20;1586542;88;21936;-62
2022/02/16 08:05:27;;;;;;;5.58;4.42;;;;;;;2.96;85.95;98119.64;1624476;86;21111;-62
2022/02/16 08:07:54;;;;;;;6.33;4.90;;;;;;;3.00;86.02;98116.88;1624607;86;21125;-62
2022/02/16 08:10:21;;;;;;;5.95;5.28;;;;;;;3.04;86.01;98111.13;1632757;85;28724;-62
2022/02/16 08:12:52;;;;;;;5.75;4.78;;;;;;;3.09;86.06;98102.76;1631782;86;21320;-61
2022/02/16 08:15:20;;;;;;;5.80;4.45;;;;;;;3.17;86.15;98105.84;1631033;86;21140;-62
2022/02/16 08:17:47;;;;;;;6.53;5.30;;;;;;;3.21;86.00;98106.09;1636085;86;21371;-62
2022/02/16 08:20:13;;;;;;;6.87;4.90;;;;;;;3.26;86.11;98106.73;1588962;87;21043;-62
2022/02/16 08:22:40;;;;;;;5.87;3.70;;;;;;;3.35;86.23;98101.16;1636741;84;21542;-62
2022/02/16 08:25:09;;;;;;;4.85;4.33;;;;;;;3.41;86.10;98101.80;1644240;84;21129;-62
2022/02/16 08:27:37;;;;;;;5.25;4.75;;;;;;;3.43;86.06;98096.13;1649943;84;21122;-62
2022/02/16 08:30:05;;;;;;;;;;;;;;;3.47;86.24;98092.49;1650450;84;21117;-62
2022/02/16 08:32:32;;;;;;;5.92;4.17;;;;;;;3.50;86.19;98084.61;1650858;83;20179;-61
2022/02/16 08:34:58;;;;;;;7.33;4.65;;;;;;;3.52;86.21;98083.64;1650707;83;20996;-62
2022/02/16 08:37:27;;;;;;;4.08;3.60;;;;;;;3.55;86.15;98072.34;1651814;83;21553;-66
2022/02/16 08:39:54;;;;;;;5.47;3.90;;;;;;;3.57;86.12;98070.54;1646931;85;21482;-62
2022/02/16 08:42:21;;;;;;;4.22;3.83;;;;;;;3.57;86.14;98062.34;1644065;85;20977;-62
2022/02/16 08:44:47;;;;;;;5.45;3.87;;;;;;;3.59;86.23;98054.55;1648257;84;21066;-62
2022/02/16 08:47:14;;;;;;;6.70;4.08;;;;;;;3.62;86.33;98050.53;1647495;84;21865;-62
2022/02/16 08:49:44;;;;;;;3.40;3.00;;;;;;;3.62;86.26;98049.70;1645664;84;21112;-62
2022/02/16 08:52:13;;;;;;;4.35;3.90;;;;;;;3.62;86.30;98038.91;1643113;85;21123;-62
2022/02/16 08:54:39;;;;;;;5.70;4.10;;;;;;;3.62;86.26;98036.33;1647922;85;21184;-61
2022/02/16 08:57:07;;;;;;;5.60;4.47;;;;;;;3.62;86.32;98033.75;1653289;83;21012;-61
2022/02/16 08:59:34;;;;;;;5.50;4.45;;;;;;;3.66;86.42;98022.37;1647471;84;20999;-61
2022/02/16 09:02:01;;;;;;;6.53;3.58;;;;;;;3.73;86.46;98009.57;1647543;83;21475;-62
2022/02/16 09:04:28;;;;;;;5.83;4.25;;;;;;;3.80;86.53;98010.94;1646790;85;21570;-61
2022/02/16 09:09:43;;;;;;;6.55;4.47;;;;;;;3.91;86.47;98008.31;1644439;84;21030;-61
2022/02/16 09:12:22;;;;;;;5.45;4.05;;;;;;;4.03;86.59;97999.97;1797763;79;23437;-61
2022/02/16 09:14:50;;;;;;;5.00;4.10;;;;;;;4.05;86.54;97996.86;1782927;80;20922;-61
2022/02/16 09:17:17;;;;;;;5.30;4.03;;;;;;;4.06;86.46;97990.77;1753195;80;21091;-61
2022/02/16 09:19:44;;;;;;;4.28;3.27;;;;;;;4.08;86.53;97993.30;1784901;80;20965;-61
2022/02/16 09:22:15;;;;;;;6.57;3.77;;;;;;;4.07;86.42;98000.22;1777110;80;20993;-62
2022/02/16 09:24:39;;;;;;;6.03;3.70;;;;;;;4.09;86.54;97998.83;1779539;80;20946;-62
2022/02/16 09:27:06;;;;;;;5.15;4.05;;;;;;;4.07;86.57;98000.22;1743642;80;21729;-62
2022/02/16 09:29:33;;;;;;;6.70;3.98;;;;;;;4.07;86.50;98000.22;1787851;80;22230;-62
2022/02/16 09:32:00;;;;;;;4.92;4.00;;;;;;;4.08;86.63;97992.01;1776901;80;20938;-61
2022/02/16 09:34:27;;;;;;;5.80;3.90;;;;;;;4.04;86.53;97995.20;1772654;80;21034;-62
2022/02/16 09:36:57;;;;;;;6.25;4.28;;;;;;;3.94;86.58;97986.22;1783071;80;21509;-62
2022/02/16 09:39:24;;;;;;;6.67;4.33;;;;;;;3.92;86.71;97988.02;1784625;80;20918;-62
2022/02/16 09:41:50;;;;;;;6.87;4.80;;;;;;;3.91;86.72;97988.95;1763473;80;21081;-62
2022/02/16 09:44:34;;;;;;;5.58;4.40;;;;;;;3.89;86.83;97986.88;1779377;79;21088;-62
2022/02/16 09:47:04;;;;;;;7.65;4.90;;;;;;;3.93;86.96;97976.34;1761627;80;20998;-62
2022/02/16 09:49:34;;;;;;;6.92;4.85;;;;;;;3.95;86.88;97980.13;1777662;80;20989;-62
2022/02/16 09:52:02;;;;;;;6.15;4.60;;;;;;;3.94;86.83;97978.47;1767847;80;21030;-62
2022/02/16 09:54:29;;;;;;;6.30;4.20;;;;;;;3.92;86.82;97978.56;1772141;80;21623;-62
2022/02/16 09:56:57;;;;;;;5.92;4.97;;;;;;;3.91;86.88;97973.45;1785809;80;20911;-62
2022/02/16 10:01:13;;;;;;;9.38;5.50;;;;;;;3.90;86.94;97965.34;1838857;75;27878;-61
2022/02/16 10:03:42;;;;;;;7.12;5.03;;;;;;;3.89;86.77;97967.52;1843616;77;21516;-62
2022/02/16 10:06:13;;;;;;;9.80;4.70;;;;;;;3.91;86.85;97964.41;1832663;77;21095;-62
2022/02/16 10:08:48;;;;;;;5.87;4.28;;;;;;;3.91;86.95;97963.12;1835724;77;21004;-62
2022/02/16 10:11:16;;;;;;;7.00;4.37;;;;;;;3.91;86.90;97955.38;1851074;76;21666;-61
2022/02/16 10:13:44;;;;;;;5.92;4.45;;;;;;;3.90;86.96;97948.55;1836240;77;20941;-61
2022/02/16 10:16:15;;;;;;;;;;;;;;;3.91;87.06;97941.17;1848358;77;20923;-61
2022/02/16 10:19:02;;;;;;;8.55;5.03;;;;;;;3.93;87.15;97922.58;1814857;77;21148;-61
2022/02/16 10:21:30;;;;;;;7.28;4.53;;;;;;;3.89;87.06;97921.88;1839557;77;20985;-61
2022/02/16 10:23:56;;;;;;;7.67;4.47;;;;;;;3.85;87.11;97914.38;1844203;75;21452;-61
2022/02/16 10:26:50;;;;;;;6.33;4.87;;;;;;;3.80;87.13;97916.70;1840442;77;21005;-63
2022/02/16 10:29:21;;;;;;;6.50;4.70;;;;;;;3.81;87.27;97903.37;1837468;77;20982;-61
2022/02/16 10:31:48;;;;;;;5.67;4.17;;;;;;;3.78;87.25;97891.44;1843612;77;21038;-64
2022/02/16 10:34:14;;;;;;;5.33;4.33;;;;;;;3.78;87.31;97886.28;1848241;77;21451;-62
2022/02/16 10:36:42;;;;;;;5.13;4.63;;;;;;;3.83;87.34;97885.20;1841346;77;20969;-62
2022/02/16 10:39:13;;;;;;;;;;;;;;;3.85;87.36;97874.36;1850585;77;21011;-61
2022/02/16 10:41:53;;;;;;;6.60;4.47;;;;;;;3.86;87.36;97866.98;1844553;77;20118;-62
2022/02/16 10:44:33;;;;;;;5.70;4.47;;;;;;;3.86;87.36;97861.81;1849503;77;21078;-61
2022/02/16 10:47:10;;;;;;;5.78;4.22;;;;;;;3.90;87.38;97855.61;1839769;77;20900;-62
2022/02/16 10:49:40;;;;;;;6.60;5.10;;;;;;;3.94;87.41;97842.91;1846708;77;20946;-62
2022/02/16 10:52:18;;;;;;;8.05;4.92;;;;;;;3.95;87.39;97832.95;1840274;77;21037;-62
2022/02/16 10:54:58;;;;;;;7.10;4.60;;;;;;;3.99;87.37;97825.44;1841817;77;20976;-60
2022/02/16 10:57:26;;;;;;;6.35;4.95;;;;;;;3.98;87.34;97812.16;1839960;76;21523;-61
2022/02/16 10:59:52;;;;;;;;;;;;;;;3.99;87.42;97810.77;1843886;76;21013;-61
2022/02/16 11:02:23;;;;;;;6.20;4.72;;;;;;;3.98;87.38;97812.16;1839084;77;20081;-61
2022/02/16 11:04:53;;;;;;;9.58;5.03;;;;;;;3.99;87.45;97803.48;1844604;77;20972;-62
2022/02/16 11:07:23;;;;;;;7.65;5.28;;;;;;;3.98;87.47;97794.08;1838145;77;20937;-61
2022/02/16 11:10:06;;;;;;;9.10;5.30;;;;;;;4.03;87.55;97792.07;1846665;77;21618;-61
2022/02/16 11:12:37;;;;;;;9.30;5.47;;;;;;;4.08;87.56;97778.94;1840041;76;20946;-62
2022/02/16 11:15:06;;;;;;;8.25;5.60;;;;;;;4.10;87.58;97775.83;1840980;77;21055;-63
2022/02/16 11:17:33;;;;;;;6.20;5.35;;;;;;;4.12;87.51;97772.71;1839745;77;21017;-62
2022/02/16 11:20:21;;;;;;;7.20;5.42;;;;;;;4.14;87.46;97761.36;1848646;76;21610;-61
2022/02/16 11:22:55;;;;;;;8.80;6.05;;;;;;;4.12;87.45;97759.80;1843584;77;21024;-62
2022/02/16 11:25:34;;;;;;;6.97;5.95;;;;;;;4.15;87.62;97752.72;1810112;77;21016;-60
2022/02/16 11:28:11;;;;;;;7.00;5.60;;;;;;;4.19;87.62;97743.05;1733185;81;21159;-60
2022/02/16 11:30:41;;;;;;;7.78;5.50;;;;;;;4.20;87.64;97736.52;1724602;82;21104;-61
2022/02/16 11:33:21;;;;;;;8.60;5.75;;;;;;;4.24;87.71;97730.72;1724937;82;21530;-61
2022/02/16 11:36:00;;;;;;;7.78;5.45;;;;;;;4.26;87.60;97729.73;1726264;81;21089;-62
2022/02/16 11:38:43;;;;;;;6.80;6.00;;;;;;;4.28;87.71;97719.77;1695520;83;20997;-61
2022/02/16 11:41:28;;;;;;;8.75;6.22;;;;;;;4.29;87.69;97712.41;1723197;81;21648;-62
2022/02/16 11:44:03;;;;;;;11.33;6.37;;;;;;;4.32;87.76;97707.07;1726178;81;21538;-62
2022/02/16 11:46:48;;;;;;;8.23;5.60;;;;;;;4.37;87.83;97702.46;1725921;82;21587;-61
2022/02/16 11:49:38;;;;;;;8.98;6.60;;;;;;;4.37;87.79;97699.87;1725348;81;21021;-61
2022/02/16 11:52:34;;;;;;;10.15;6.22;;;;;;;4.40;87.84;97686.81;1723939;81;21073;-62
2022/02/16 11:55:02;;;;;;;8.33;6.17;;;;;;;4.41;87.80;97678.14;1722838;82;20974;-62
2022/02/16 11:57:43;;;;;;;10.08;6.33;;;;;;;4.47;87.93;97667.45;1724908;81;21164;-61
2022/02/16 12:00:19;;;;;;;8.88;6.15;;;;;;;4.54;88.03;97658.46;1720724;82;21113;-62
2022/02/16 12:03:05;;;;;;;7.45;5.37;;;;;;;4.60;87.94;97650.36;1715005;82;21342;-62
2022/02/16 12:06:03;;;;;;;5.45;4.95;;;;;;;4.62;87.93;97643.36;1714048;82;21036;-61
2022/02/16 12:08:39;;;;;;;5.95;5.05;;;;;;;4.66;87.90;97637.08;1714750;82;21038;-62
2022/02/16 12:11:31;;;;;;;7.53;5.35;;;;;;;4.70;87.87;97623.52;1715844;81;21091;-62
2022/02/16 12:14:17;;;;;;;9.85;5.75;;;;;;;4.75;87.95;97606.46;1716516;83;21651;-62
2022/02/16 12:16:48;;;;;;;7.87;4.92;;;;;;;4.79;87.97;97604.06;1715779;82;22000;-62
2022/02/16 12:19:23;;;;;;;9.15;5.65;;;;;;;4.82;87.85;97602.15;1782792;76;20954;-62
2022/02/16 12:21:53;;;;;;;6.72;5.67;;;;;;;4.87;87.99;97585.05;1837871;77;20946;-62